Story City, IA (50248)

7:54 PM CDT on August 20, 2014 (GMT -0500)
Prairie Ridge | Change Station
CLOSE
Current Station
Personal Weather Station
Location: Story City, IA
Elevation: 1010 ft
Nearby Weather Stations

Elev 1010 ft 42.19 °N, 93.58 °W | Updated 8 minutes ago

Partly Cloudy
Partly Cloudy
77.4 °F
Feels Like 79 °F
N
2.2
Wind Variable Wind from SE
Gusts 4.5 mph

Today
High -- | Low -- °F
--% Chance of Precip.
Yesterday
High -- | Low -- °F
Precip. -- in
6:27 AM 8:07 PM
Waning Crescent, 18% visible
Pressure 29.81 in
Visibility 10.0 miles
Clouds Few 11000 ft
Heat Index 79 °F
Dew Point 72 °F
Humidity 85%
Rainfall 0.42 in
Snow Depth Not available.
UV 1 out of 12
Pollen 9.30 out of 12
Air Quality Not available.
Flu Activity Not available.
METAR KAMW 202353Z AUTO 14005KT 10SM FEW110 25/23 A2983 RMK AO2 SLP093 T02500228 10256 20211 58011

More Conditions Fewer Conditions

Pressure 29.81 in
Visibility 10.0 miles
Clouds Few 11000 ft
Heat Index 79 °F
Dew Point 72 °F
Humidity 85%
Rainfall 0.42 in
Snow Depth Not available.
UV 1 out of 12
Pollen 9.30 out of 12
Air Quality Not available.
Flu Activity Not available.
METAR KAMW 202353Z AUTO 14005KT 10SM FEW110 25/23 A2983 RMK AO2 SLP093 T02500228 10256 20211 58011

More Conditions Fewer Conditions

10-Day Weather Forecast

Almanac

Astronomy

Aug. 20, 2014 Rise Set
Actual Time 6:27 AM CDT 8:07 PM CDT
Civil Twilight 5:57 AM CDT 8:37 PM CDT
Nautical Twilight 5:21 AM CDT 9:13 PM CDT
Astronomical Twilight 4:42 AM CDT 9:51 PM CDT
Moon 2:05 AM CDT (8/20) 4:54 PM CDT (8/20)
Length of Visible Light 14h 39m
Length of Day
13h 40m
Tomorrow will be 2m 36s shorter.
Waning Crescent, 18% of the Moon is Illuminated
Today
Waning Crescent
Aug 25
New
Sep 2
First Quarter
Sep 8
Full
Sep 15
Last Quarter

Today's Extremes

State Highs State Lows

Community

WunderPhotos

Upload Photos

1,745,823 photos uploaded!

WunderBlogs® & News

Nearby

Snow Depth

Station Depth Elevation
No new snow has been reported.

Earthquake Activity

City Distance Mag. Time & Date
No recent earthquake activity has been reported nearby.
Minimum magnitude displayed is 2.5.

Coastal Water Temperatures

Place Temperature
No Stations Reporting

Nearby Weather Stations